Time;durP1;ratioP1;P1;durP2;ratioP2;P2;SDS_P1;SDS_P2;PMS_P1;PMS_P2;Temp;Humidity;BMP_temperature;BMP_pressure;BME280_temperature;BME280_humidity;BME280_pressure;Samples;Min_cycle;Max_cycle;Signal;HPM_P1;HPM_P2
2021/06/17 00:01:36;;;;;;;4.78;1.65;;;;;;;18.85;59.85;93635.06;5135731;27;20806;-76
2021/06/17 00:04:03;;;;;;;3.47;1.58;;;;;;;18.61;61.96;93631.97;5135751;27;20193;-77
2021/06/17 00:06:29;;;;;;;3.38;1.60;;;;;;;18.31;63.77;93617.47;5135907;27;20188;-77
2021/06/17 00:08:56;;;;;;;4.05;1.80;;;;;;;18.30;63.70;93624.63;5135932;27;20235;-76
2021/06/17 00:11:22;;;;;;;3.75;2.20;;;;;;;18.29;63.34;93632.78;5135778;27;20197;-76
2021/06/17 00:13:51;;;;;;;6.90;1.95;;;;;;;18.36;63.88;93630.72;5135688;27;20192;-77
2021/06/17 00:16:19;;;;;;;2.90;1.60;;;;;;;18.18;64.33;93633.75;5135715;27;20197;-77
2021/06/17 00:18:46;;;;;;;3.72;2.00;;;;;;;18.05;64.66;93627.84;5135534;27;20255;-77
2021/06/17 00:21:12;;;;;;;2.45;1.70;;;;;;;17.91;66.23;93634.56;5135352;27;20651;-77
2021/06/17 00:23:39;;;;;;;3.00;1.90;;;;;;;17.87;66.23;93630.81;5135641;27;20208;-76
2021/06/17 00:26:06;;;;;;;2.42;1.60;;;;;;;17.82;67.50;93630.72;5135255;27;20224;-77
2021/06/17 00:28:32;;;;;;;4.72;2.10;;;;;;;17.96;65.74;93639.88;5135471;27;20196;-77
2021/06/17 00:30:59;;;;;;;2.67;1.67;;;;;;;18.06;63.88;93632.06;5134746;27;20203;-76
2021/06/17 00:33:28;;;;;;;6.03;2.03;;;;;;;17.98;64.40;93629.06;5135141;27;20663;-77
2021/06/17 00:35:55;;;;;;;3.85;1.90;;;;;;;17.86;64.94;93631.84;5135433;27;20249;-77
2021/06/17 00:38:22;;;;;;;4.97;1.80;;;;;;;17.86;65.43;93626.56;5135143;27;20690;-78
2021/06/17 00:40:51;;;;;;;2.80;1.70;;;;;;;17.88;65.42;93624.47;5135134;27;20201;-77
2021/06/17 00:43:17;;;;;;;4.20;2.00;;;;;;;18.01;62.93;93618.78;5135077;27;20224;-77
2021/06/17 00:45:47;;;;;;;3.17;1.80;;;;;;;17.90;64.20;93609.19;5133725;27;20425;-76
2021/06/17 00:48:16;;;;;;;2.45;1.83;;;;;;;18.00;64.45;93611.94;5135239;27;20647;-78
2021/06/17 00:50:46;;;;;;;7.10;1.50;;;;;;;17.99;64.95;93605.03;5135067;27;20619;-77
2021/06/17 00:53:15;;;;;;;6.47;1.75;;;;;;;17.93;65.88;93601.53;5135004;27;20200;-76
2021/06/17 00:55:43;;;;;;;5.90;1.75;;;;;;;17.86;66.96;93595.66;5134841;27;20203;-76
2021/06/17 00:58:11;;;;;;;4.03;1.65;;;;;;;17.77;67.39;93610.38;5134736;27;20201;-77
2021/06/17 01:00:38;;;;;;;5.93;1.65;;;;;;;17.72;67.15;93595.25;5134970;27;20555;-77
2021/06/17 01:03:05;;;;;;;3.47;1.58;;;;;;;17.58;67.83;93599.31;5134605;27;20233;-75
2021/06/17 01:05:32;;;;;;;4.65;1.88;;;;;;;17.52;68.22;93600.31;5134668;27;20566;-77
2021/06/17 01:08:13;;;;;;;2.22;1.60;;;;;;;17.50;70.13;93599.75;5134600;27;20287;-76
2021/06/17 01:10:48;;;;;;;3.72;1.73;;;;;;;17.51;68.61;93598.72;5134327;27;20212;-77
2021/06/17 01:13:22;;;;;;;4.03;1.80;;;;;;;17.42;68.37;93593.09;5134602;27;20655;-76
2021/06/17 01:15:56;;;;;;;2.67;2.00;;;;;;;17.50;66.36;93587.38;5134586;27;20200;-76
2021/06/17 01:18:23;;;;;;;2.80;1.63;;;;;;;17.49;67.13;93593.69;5134524;27;20292;-76
2021/06/17 01:20:53;;;;;;;3.58;1.75;;;;;;;17.52;66.83;93587.09;5134498;27;20224;-76
2021/06/17 01:23:55;;;;;;;2.08;1.58;;;;;;;17.54;66.55;93577.13;5134189;27;20224;-77
2021/06/17 01:26:31;;;;;;;3.00;1.48;;;;;;;17.45;67.15;93573.31;5134148;27;20228;-76
2021/06/17 01:29:01;;;;;;;2.20;1.60;;;;;;;17.33;66.79;93571.59;5134366;27;20214;-76
2021/06/17 01:31:31;;;;;;;2.97;1.77;;;;;;;17.23;67.90;93570.72;5134082;27;20651;-76
2021/06/17 01:33:59;;;;;;;3.55;1.63;;;;;;;17.07;68.93;93562.63;5134391;27;20192;-76
2021/06/17 01:36:32;;;;;;;2.72;1.60;;;;;;;17.23;68.73;93560.94;5134243;27;20192;-76
2021/06/17 01:39:01;;;;;;;2.97;1.95;;;;;;;17.04;70.39;93572.84;5134058;27;20283;-75
2021/06/17 01:41:30;;;;;;;3.95;1.98;;;;;;;17.04;69.23;93564.94;5132969;27;20675;-77
2021/06/17 01:43:58;;;;;;;8.00;1.80;;;;;;;16.97;70.36;93565.13;5133926;27;20201;-78
2021/06/17 01:46:27;;;;;;;3.83;1.70;;;;;;;17.09;68.52;93557.91;5133920;27;20674;-77
2021/06/17 01:48:56;;;;;;;2.60;1.70;;;;;;;17.18;67.32;93551.13;5134037;27;20200;-76
2021/06/17 01:51:25;;;;;;;5.50;1.58;;;;;;;17.22;66.44;93556.72;5134050;27;20193;-77
2021/06/17 01:53:52;;;;;;;3.42;1.73;;;;;;;17.09;69.93;93549.19;5133918;27;20212;-76
2021/06/17 01:56:21;;;;;;;2.42;1.60;;;;;;;16.99;69.03;93563.06;5133866;27;20224;-77
2021/06/17 01:58:52;;;;;;;5.18;1.90;;;;;;;16.93;68.96;93562.19;5133770;27;20254;-76
2021/06/17 02:01:20;;;;;;;2.45;1.80;;;;;;;16.89;69.10;93569.00;5133584;27;20200;-77
2021/06/17 02:03:48;;;;;;;6.82;1.80;;;;;;;16.75;69.34;93571.16;5133759;28;20644;-76
2021/06/17 02:06:16;;;;;;;2.65;1.70;;;;;;;16.76;69.91;93564.84;5133714;28;20192;-76
2021/06/17 02:08:44;;;;;;;2.97;1.80;;;;;;;16.67;71.23;93562.84;5133722;28;20287;-76
2021/06/17 02:11:11;;;;;;;3.58;1.73;;;;;;;16.47;72.88;93569.47;5133621;28;20197;-76
2021/06/17 02:13:38;;;;;;;3.58;1.70;;;;;;;16.41;71.48;93573.06;5133879;28;20224;-77
2021/06/17 02:16:06;;;;;;;4.45;1.90;;;;;;;16.51;70.01;93569.78;5133806;28;20223;-77
2021/06/17 02:18:34;;;;;;;2.13;1.63;;;;;;;16.38;71.05;93568.25;5133754;28;20216;-76
2021/06/17 02:21:03;;;;;;;3.30;1.70;;;;;;;16.12;73.59;93574.97;5133822;27;20196;-77
2021/06/17 02:23:33;;;;;;;3.25;1.77;;;;;;;16.12;72.62;93575.78;5133583;28;20200;-76
2021/06/17 02:26:01;;;;;;;3.33;1.80;;;;;;;16.04;74.56;93573.56;5133089;28;20721;-76
2021/06/17 02:28:30;;;;;;;5.15;1.70;;;;;;;15.90;76.35;93578.31;5133742;28;20281;-76
2021/06/17 02:31:01;;;;;;;4.20;1.80;;;;;;;15.82;75.52;93576.88;5133636;28;20295;-76
2021/06/17 02:33:30;;;;;;;5.40;2.00;;;;;;;15.85;76.07;93573.78;5133444;28;20228;-76
2021/06/17 02:35:57;;;;;;;6.13;1.75;;;;;;;15.87;75.57;93581.41;5133278;28;20655;-75
2021/06/17 02:38:29;;;;;;;4.97;2.13;;;;;;;15.90;74.60;93581.75;5133331;28;20295;-75
2021/06/17 02:41:01;;;;;;;3.67;1.77;;;;;;;16.15;71.88;93585.81;5133696;28;20201;-76
2021/06/17 02:43:30;;;;;;;3.63;1.90;;;;;;;16.40;70.70;93589.91;5133457;28;20283;-76
2021/06/17 02:45:57;;;;;;;4.65;2.15;;;;;;;16.51;70.49;93590.84;5133408;28;20532;-78
2021/06/17 02:48:24;;;;;;;2.83;2.00;;;;;;;16.44;71.27;93591.03;5133416;28;20229;-76
2021/06/17 02:50:52;;;;;;;6.00;1.98;;;;;;;16.24;72.63;93586.25;5133268;28;20201;-76
2021/06/17 02:53:19;;;;;;;4.28;1.98;;;;;;;16.03;73.78;93585.13;5135208;27;20624;-76
2021/06/17 02:55:47;;;;;;;4.18;2.05;;;;;;;15.97;74.40;93580.78;5137368;27;20197;-75
2021/06/17 02:58:35;;;;;;;3.60;1.90;;;;;;;15.96;74.20;93580.00;5137238;27;20224;-76
2021/06/17 03:01:10;;;;;;;3.42;1.90;;;;;;;16.08;73.16;93577.28;5137055;27;20196;-76
2021/06/17 03:03:42;;;;;;;6.43;2.03;;;;;;;16.24;71.71;93587.03;5136968;27;20196;-76
2021/06/17 03:06:14;;;;;;;3.40;2.05;;;;;;;16.57;70.84;93584.59;5137122;27;20286;-76
2021/06/17 03:08:45;;;;;;;3.13;2.10;;;;;;;16.58;70.37;93581.72;5136912;27;20675;-76
2021/06/17 03:11:14;;;;;;;4.03;1.98;;;;;;;16.52;70.22;93587.16;5137049;27;20204;-75
2021/06/17 03:13:44;;;;;;;4.35;2.00;;;;;;;16.46;71.31;93594.22;5137061;27;20582;-76
2021/06/17 03:16:16;;;;;;;5.53;1.85;;;;;;;16.41;72.27;93604.69;5137084;27;20203;-76
2021/06/17 03:18:44;;;;;;;4.82;1.98;;;;;;;16.30;72.65;93605.56;5136754;27;20197;-76
2021/06/17 03:21:12;;;;;;;5.40;2.50;;;;;;;16.19;74.53;93604.59;5136779;27;20204;-76
2021/06/17 03:23:41;;;;;;;4.28;2.05;;;;;;;16.06;74.67;93601.22;5136603;27;20215;-76
2021/06/17 03:26:10;;;;;;;4.68;2.10;;;;;;;16.14;74.12;93613.22;5136424;27;20236;-76
2021/06/17 03:28:40;;;;;;;2.38;1.80;;;;;;;16.14;74.55;93607.94;5136512;27;20647;-76
2021/06/17 03:31:08;;;;;;;2.28;1.90;;;;;;;16.09;74.63;93613.13;5136754;27;20559;-78
2021/06/17 03:33:37;;;;;;;2.88;2.00;;;;;;;16.12;74.66;93607.41;5136462;27;20252;-76
2021/06/17 03:36:08;;;;;;;3.80;1.95;;;;;;;16.09;75.16;93615.78;5135604;27;20521;-77
2021/06/17 03:38:36;;;;;;;4.18;2.00;;;;;;;16.07;74.79;93612.56;5136325;27;20205;-79
2021/06/17 03:41:04;;;;;;;2.70;2.10;;;;;;;16.13;75.00;93611.59;5136601;27;20205;-77
2021/06/17 03:43:33;;;;;;;5.32;2.03;;;;;;;16.16;74.98;93616.41;5136468;27;20295;-77
2021/06/17 03:46:02;;;;;;;6.93;1.80;;;;;;;16.20;74.81;93617.50;5136206;27;20196;-77
2021/06/17 03:48:29;;;;;;;2.80;2.13;;;;;;;16.20;74.38;93617.50;5136233;27;20200;-77
2021/06/17 03:50:56;;;;;;;3.10;1.67;;;;;;;16.20;75.41;93622.00;5136240;27;20197;-77
2021/06/17 03:53:23;;;;;;;7.53;1.92;;;;;;;16.11;76.59;93626.84;5135927;27;20228;-76
2021/06/17 03:55:54;;;;;;;6.63;2.08;;;;;;;16.04;76.57;93629.66;5136239;27;20196;-77
2021/06/17 03:58:23;;;;;;;4.65;1.88;;;;;;;16.11;76.02;93636.59;5136158;27;20197;-76
2021/06/17 04:00:49;;;;;;;8.25;2.35;;;;;;;16.10;76.02;93633.16;5135999;27;20624;-77
2021/06/17 04:03:20;;;;;;;3.03;2.00;;;;;;;16.14;75.97;93634.28;5135913;27;20677;-77
2021/06/17 04:05:47;;;;;;;3.63;2.40;;;;;;;16.19;75.74;93630.94;5134146;27;20205;-77
2021/06/17 04:08:15;;;;;;;2.70;1.63;;;;;;;16.22;76.30;93631.25;5136055;27;20567;-77
2021/06/17 04:10:43;;;;;;;4.63;1.90;;;;;;;16.31;76.10;93622.97;5135980;27;20196;-77
2021/06/17 04:13:12;;;;;;;4.45;2.00;;;;;;;16.42;76.64;93635.25;5135563;27;20221;-77
2021/06/17 04:15:41;;;;;;;4.00;1.95;;;;;;;16.46;75.88;93631.09;5135626;27;20524;-77
2021/06/17 04:18:09;;;;;;;3.47;2.20;;;;;;;16.49;76.52;93633.25;5135499;27;20509;-75
2021/06/17 04:20:41;;;;;;;7.57;2.30;;;;;;;16.53;76.98;93637.00;5135784;27;20235;-77
2021/06/17 04:23:08;;;;;;;10.00;2.22;;;;;;;16.51;78.41;93644.34;5135711;27;20280;-79
2021/06/17 04:25:37;;;;;;;5.18;2.58;;;;;;;16.56;77.62;93652.34;5135282;27;20710;-76
2021/06/17 04:28:04;;;;;;;4.65;2.10;;;;;;;16.71;75.53;93653.63;5135398;27;20203;-75
2021/06/17 04:30:34;;;;;;;3.30;2.00;;;;;;;16.77;76.44;93653.44;5135424;27;20566;-78
2021/06/17 04:33:05;;;;;;;3.10;2.00;;;;;;;16.83;76.65;93646.41;5134919;27;20220;-78
2021/06/17 04:35:32;;;;;;;6.43;1.92;;;;;;;16.93;76.22;93646.56;5135433;27;20197;-79
2021/06/17 04:38:00;;;;;;;2.45;1.83;;;;;;;17.02;75.82;93649.59;5135291;27;20300;-79
2021/06/17 04:40:28;;;;;;;3.03;1.92;;;;;;;17.05;77.69;93649.09;5134993;27;20666;-78
2021/06/17 04:42:57;;;;;;;10.23;2.30;;;;;;;17.16;76.51;93648.19;5135101;27;20289;-77
2021/06/17 04:45:26;;;;;;;7.43;2.40;;;;;;;17.27;76.31;93643.88;5134930;27;20228;-77
2021/06/17 04:47:53;;;;;;;4.20;1.80;;;;;;;17.36;75.90;93647.66;5135037;27;20269;-78
2021/06/17 04:50:23;;;;;;;3.20;2.20;;;;;;;17.44;76.82;93650.94;5135003;27;20192;-78
2021/06/17 04:53:11;;;;;;;3.13;2.05;;;;;;;17.58;75.75;93646.84;5134923;27;20236;-77
2021/06/17 04:55:42;;;;;;;5.20;1.88;;;;;;;17.68;75.25;93646.94;5134757;27;20200;-77
2021/06/17 04:58:09;;;;;;;9.45;1.98;;;;;;;17.79;74.84;93639.16;5135086;27;20193;-77
2021/06/17 05:00:36;;;;;;;3.67;2.22;;;;;;;17.88;75.74;93640.34;5134721;27;20210;-78
2021/06/17 05:03:03;;;;;;;3.53;2.10;;;;;;;17.93;75.28;93643.03;5135144;27;20291;-78
2021/06/17 05:05:30;;;;;;;4.75;2.03;;;;;;;17.96;76.98;93645.16;5134615;27;20208;-79
2021/06/17 05:10:51;;;;;;;6.55;2.10;;;;;;;18.11;76.56;93645.31;5134465;27;20189;-78
2021/06/17 05:13:22;;;;;;;4.53;2.30;;;;;;;18.27;76.28;93643.63;5134739;27;20266;-77
2021/06/17 05:15:49;;;;;;;4.25;2.25;;;;;;;18.35;77.24;93644.19;5134389;27;20231;-77
2021/06/17 05:18:17;;;;;;;5.55;2.30;;;;;;;18.45;77.03;93642.44;5134376;27;20200;-77
2021/06/17 05:20:44;;;;;;;3.78;2.22;;;;;;;18.73;76.12;93643.16;5134285;27;20284;-77
2021/06/17 05:23:13;;;;;;;4.38;2.38;;;;;;;18.96;75.74;93638.59;5134468;27;20203;-77
2021/06/17 05:25:42;;;;;;;5.07;2.00;;;;;;;19.07;74.90;93645.53;5134200;27;20263;-77
2021/06/17 05:28:08;;;;;;;5.60;1.88;;;;;;;19.14;75.23;93643.44;5134383;27;20193;-77
2021/06/17 05:30:35;;;;;;;3.45;2.00;;;;;;;19.42;74.37;93636.97;5134368;27;20201;-78
2021/06/17 05:33:02;;;;;;;3.45;1.98;;;;;;;19.71;72.95;93643.69;5134028;27;20232;-77
2021/06/17 05:35:28;;;;;;;2.78;1.77;;;;;;;19.89;71.69;93639.78;5134245;27;20207;-77
2021/06/17 05:37:55;;;;;;;4.60;1.95;;;;;;;20.33;70.09;93644.63;5134319;27;20193;-78
2021/06/17 05:40:21;;;;;;;6.90;2.20;;;;;;;21.33;66.85;93645.84;5134115;27;20205;-78
2021/06/17 05:42:49;;;;;;;5.72;2.13;;;;;;;22.54;62.44;93652.69;5133041;27;20440;-77
2021/06/17 05:45:15;;;;;;;2.45;1.80;;;;;;;24.02;58.30;93651.47;5133409;27;20204;-78
2021/06/17 05:47:42;;;;;;;2.03;1.50;;;;;;;25.90;53.98;93647.03;5133760;27;20197;-78
2021/06/17 05:50:12;;;;;;;5.68;1.55;;;;;;;26.95;50.68;93644.13;5133846;27;20292;-78
2021/06/17 05:52:39;;;;;;;2.83;1.60;;;;;;;27.83;47.84;93650.66;5134120;27;20196;-78
2021/06/17 05:55:07;;;;;;;5.70;1.52;;;;;;;28.93;45.79;93641.75;5133938;27;20207;-79
2021/06/17 05:57:35;;;;;;;3.15;1.40;;;;;;;29.88;44.03;93648.72;5133831;27;20216;-77
2021/06/17 06:00:04;;;;;;;12.05;2.17;;;;;;;30.57;43.37;93646.69;5133533;27;20197;-79
2021/06/17 06:02:31;;;;;;;3.83;1.33;;;;;;;31.24;41.44;93649.41;5133180;27;20710;-79
2021/06/17 06:04:58;;;;;;;3.00;1.30;;;;;;;31.96;38.13;93642.84;5134041;28;20253;-78
2021/06/17 06:07:24;;;;;;;4.18;1.40;;;;;;;31.84;37.73;93649.84;5134089;28;20199;-78
2021/06/17 06:09:51;;;;;;;2.88;1.20;;;;;;;31.95;37.08;93652.09;5133663;28;20671;-78
2021/06/17 06:12:17;;;;;;;2.67;1.05;;;;;;;32.03;36.95;93654.69;5133432;28;20206;-79
2021/06/17 06:14:43;;;;;;;3.17;1.20;;;;;;;31.56;39.63;93652.44;5133516;28;20228;-77
2021/06/17 06:17:11;;;;;;;2.85;1.55;;;;;;;31.33;41.45;93654.72;5133471;28;20203;-78
2021/06/17 06:19:38;;;;;;;2.25;1.13;;;;;;;31.58;39.87;93660.97;5133624;28;20201;-78
2021/06/17 06:22:06;;;;;;;2.75;1.50;;;;;;;31.50;38.85;93669.94;5133540;28;20651;-78
2021/06/17 06:24:34;;;;;;;2.70;1.10;;;;;;;30.69;42.67;93664.81;5132828;28;20816;-78
2021/06/17 06:27:01;;;;;;;4.65;1.50;;;;;;;29.46;46.42;93666.63;5133650;27;20444;-78
2021/06/17 06:29:28;;;;;;;1.55;1.17;;;;;;;29.23;46.61;93668.75;5137142;27;20211;-79
2021/06/17 06:31:55;;;;;;;4.40;1.27;;;;;;;29.16;48.47;93667.31;5137927;27;20203;-78
2021/06/17 06:34:22;;;;;;;2.40;1.45;;;;;;;29.21;47.04;93679.84;5137649;27;20295;-78
2021/06/17 06:36:50;;;;;;;2.88;1.40;;;;;;;28.51;50.78;93673.66;5137549;27;20201;-77
2021/06/17 06:39:20;;;;;;;2.33;1.42;;;;;;;28.30;52.38;93673.53;5137528;27;20232;-77
2021/06/17 06:41:47;;;;;;;2.13;1.30;;;;;;;28.27;52.19;93674.16;5137548;27;20285;-77
2021/06/17 06:44:14;;;;;;;3.65;1.40;;;;;;;27.78;51.90;93668.78;5137225;27;20239;-77
2021/06/17 06:46:43;;;;;;;1.95;1.13;;;;;;;27.65;51.76;93676.66;5137325;27;20208;-78
2021/06/17 06:49:12;;;;;;;6.18;1.40;;;;;;;27.98;52.90;93676.31;5137487;27;20249;-78
2021/06/17 06:51:40;;;;;;;5.20;1.50;;;;;;;28.15;52.94;93678.22;5137300;27;20609;-78
2021/06/17 06:54:07;;;;;;;3.33;1.55;;;;;;;28.45;54.90;93680.31;5137139;27;20682;-78
2021/06/17 06:56:35;;;;;;;2.35;1.30;;;;;;;28.60;50.46;93674.50;5137150;27;20200;-78
2021/06/17 06:59:01;;;;;;;2.40;1.45;;;;;;;28.69;49.01;93674.50;5137550;27;20193;-77
2021/06/17 07:01:30;;;;;;;3.42;1.60;;;;;;;28.64;47.96;93682.72;5137088;27;20211;-78
2021/06/17 07:03:57;;;;;;;3.17;1.42;;;;;;;28.66;52.35;93681.31;5137155;27;20224;-77
2021/06/17 07:06:23;;;;;;;3.42;1.40;;;;;;;28.72;46.83;93687.31;5136687;27;20430;-78
2021/06/17 07:08:51;;;;;;;1.83;1.23;;;;;;;28.67;46.36;93679.41;5136971;27;20201;-78
2021/06/17 07:11:18;;;;;;;4.07;1.60;;;;;;;28.62;42.52;93683.03;5136699;27;20300;-77
2021/06/17 07:13:44;;;;;;;3.50;1.20;;;;;;;28.45;45.55;93688.38;5136649;27;20204;-78
2021/06/17 07:16:11;;;;;;;2.05;1.58;;;;;;;27.94;42.98;93696.81;5136945;27;20198;-78
2021/06/17 07:18:37;;;;;;;5.43;1.38;;;;;;;27.62;45.51;93698.72;5136752;27;20212;-77
2021/06/17 07:21:04;;;;;;;9.85;1.95;;;;;;;27.42;46.76;93699.28;5136641;27;20651;-78
2021/06/17 07:23:33;;;;;;;3.17;1.63;;;;;;;27.12;54.05;93698.91;5136615;27;20216;-77
2021/06/17 07:26:01;;;;;;;3.45;1.45;;;;;;;27.08;52.15;93695.25;5136769;27;20232;-77
2021/06/17 07:28:29;;;;;;;2.50;1.70;;;;;;;27.18;52.93;93700.38;5136774;27;20220;-76
2021/06/17 07:30:55;;;;;;;2.75;1.50;;;;;;;27.14;54.98;93699.41;5136683;27;20200;-77
2021/06/17 07:33:24;;;;;;;2.42;1.60;;;;;;;27.11;58.15;93694.66;5136431;27;20197;-79
2021/06/17 07:35:52;;;;;;;2.65;1.40;;;;;;;27.23;56.01;93696.75;5136471;27;20201;-79
2021/06/17 07:38:19;;;;;;;2.63;1.65;;;;;;;27.16;53.80;93691.84;5136189;27;20655;-79
2021/06/17 07:40:48;;;;;;;6.78;2.40;;;;;;;26.90;56.62;93689.78;5134760;27;20196;-79
2021/06/17 07:43:22;;;;;;;5.72;1.85;;;;;;;27.01;52.16;93678.81;5136191;27;20196;-79
2021/06/17 07:45:49;;;;;;;3.67;1.80;;;;;;;27.06;52.77;93676.81;5136248;27;20647;-80
2021/06/17 07:48:16;;;;;;;5.35;1.90;;;;;;;27.01;50.79;93678.81;5136342;27;20547;-79
2021/06/17 07:50:46;;;;;;;3.20;1.73;;;;;;;27.05;49.39;93675.22;5135997;27;20203;-79
2021/06/17 07:53:16;;;;;;;4.13;1.85;;;;;;;27.26;53.73;93675.50;5136538;27;20251;-79
2021/06/17 07:55:44;;;;;;;11.02;1.83;;;;;;;27.43;54.94;93674.84;5135852;27;20200;-79
2021/06/17 07:58:15;;;;;;;3.35;1.80;;;;;;;27.54;59.42;93675.34;5136088;27;20196;-79
2021/06/17 08:00:43;;;;;;;5.85;2.28;;;;;;;27.63;48.71;93678.06;5136017;27;20205;-79
2021/06/17 08:03:16;;;;;;;4.13;1.88;;;;;;;27.81;45.41;93684.25;5135793;27;20209;-81
2021/06/17 08:05:45;;;;;;;2.40;1.42;;;;;;;27.90;44.79;93689.69;5135654;27;20235;-80
2021/06/17 08:08:16;;;;;;;1.98;1.77;;;;;;;27.72;40.54;93688.81;5135940;27;20279;-79
2021/06/17 08:10:46;;;;;;;6.45;1.65;;;;;;;27.83;47.38;93676.72;5136035;27;20209;-77
2021/06/17 08:13:12;;;;;;;3.20;1.65;;;;;;;27.96;42.67;93678.53;5135787;27;20295;-78
2021/06/17 08:15:39;;;;;;;2.33;1.50;;;;;;;28.13;39.36;93680.44;5135725;27;20291;-79
2021/06/17 08:18:09;;;;;;;4.97;1.77;;;;;;;28.13;40.79;93687.69;5135586;27;20201;-78
2021/06/17 08:20:39;;;;;;;5.03;1.60;;;;;;;28.28;42.58;93681.88;5135805;27;20201;-79
2021/06/17 08:23:05;;;;;;;4.63;1.80;;;;;;;28.37;43.21;93685.34;5135628;27;20197;-78
2021/06/17 08:25:35;;;;;;;2.83;1.40;;;;;;;28.49;39.38;93682.03;5135277;27;20244;-78
2021/06/17 08:28:04;;;;;;;3.22;1.70;;;;;;;28.48;39.25;93679.66;5134899;27;20558;-78
2021/06/17 08:30:32;;;;;;;3.00;1.80;;;;;;;28.37;42.01;93688.03;5135455;27;20241;-78
2021/06/17 08:32:59;;;;;;;2.35;1.70;;;;;;;28.21;40.71;93693.09;5135640;27;20284;-79
2021/06/17 08:35:28;;;;;;;3.30;1.75;;;;;;;28.44;38.18;93684.88;5135257;27;20203;-78
2021/06/17 08:38:03;;;;;;;4.28;1.80;;;;;;;28.40;44.20;93683.94;5135140;27;20197;-79
2021/06/17 08:40:33;;;;;;;2.92;1.88;;;;;;;28.49;38.18;93682.03;5135171;27;20197;-77
2021/06/17 08:43:00;;;;;;;2.92;1.42;;;;;;;28.40;39.56;93684.72;5135042;27;20287;-78
2021/06/17 08:45:30;;;;;;;2.83;1.80;;;;;;;28.34;40.66;93674.47;5135077;27;20224;-79
2021/06/17 08:47:58;;;;;;;3.97;1.60;;;;;;;28.36;40.25;93683.78;5135182;27;20197;-78
2021/06/17 08:50:25;;;;;;;2.22;1.20;;;;;;;28.72;40.22;93688.09;5134517;27;20197;-78
2021/06/17 08:52:53;;;;;;;2.65;1.77;;;;;;;28.71;38.04;93689.22;5134886;27;20199;-78
2021/06/17 08:55:22;;;;;;;3.67;2.05;;;;;;;28.84;39.51;93681.28;5134619;27;20241;-78
2021/06/17 08:57:52;;;;;;;2.92;1.70;;;;;;;29.11;38.28;93674.75;5134897;27;20204;-78
2021/06/17 09:00:39;;;;;;;3.05;1.98;;;;;;;28.93;43.54;93679.41;5134930;27;20237;-77
2021/06/17 09:03:09;;;;;;;4.40;1.95;;;;;;;28.62;44.66;93683.03;5134675;27;20204;-76
2021/06/17 09:05:38;;;;;;;4.47;1.90;;;;;;;28.34;44.63;93690.56;5134136;27;20277;-76
2021/06/17 09:08:11;;;;;;;6.25;2.40;;;;;;;27.91;44.76;93694.72;5133968;27;20284;-75
2021/06/17 09:10:41;;;;;;;3.30;2.10;;;;;;;27.89;45.34;93691.56;5134077;27;20655;-76
2021/06/17 09:13:13;;;;;;;2.47;1.90;;;;;;;27.90;47.16;93690.47;5134640;27;20200;-77
2021/06/17 09:15:45;;;;;;;6.82;2.10;;;;;;;27.79;47.27;93691.84;5135257;27;20205;-76
2021/06/17 09:18:23;;;;;;;9.93;2.65;;;;;;;27.77;47.42;93688.69;5134430;27;20200;-76
2021/06/17 09:20:56;;;;;;;4.43;2.30;;;;;;;27.56;46.89;93691.13;5134700;27;20200;-75
2021/06/17 09:23:34;;;;;;;2.72;1.83;;;;;;;27.75;45.43;93693.56;5134557;27;20211;-75
2021/06/17 09:26:07;;;;;;;5.07;2.40;;;;;;;27.55;45.27;93698.38;5134258;27;20228;-78
2021/06/17 09:28:48;;;;;;;6.93;2.10;;;;;;;27.42;45.57;93699.28;5134103;27;20625;-75
2021/06/17 09:31:16;;;;;;;3.17;1.88;;;;;;;27.43;44.29;93707.00;5134283;27;20196;-77
2021/06/17 09:33:44;;;;;;;6.93;2.15;;;;;;;27.58;43.52;93707.69;5134364;27;20227;-76
2021/06/17 09:36:13;;;;;;;6.55;2.53;;;;;;;27.76;42.09;93708.56;5134277;27;20278;-76
2021/06/17 09:38:49;;;;;;;3.95;2.00;;;;;;;27.77;43.50;93710.16;5134210;27;20270;-77
2021/06/17 09:41:35;;;;;;;4.43;2.17;;;;;;;27.80;44.92;93717.59;5134109;27;20286;-76
2021/06/17 09:44:06;;;;;;;5.40;2.38;;;;;;;27.81;43.96;93716.47;5134250;27;20213;-77
2021/06/17 09:46:36;;;;;;;3.85;2.40;;;;;;;28.09;45.10;93710.91;5134153;27;20208;-77
2021/06/17 09:49:06;;;;;;;4.07;2.42;;;;;;;28.04;43.75;93720.66;5134040;27;20201;-77
2021/06/17 09:51:38;;;;;;;3.75;2.30;;;;;;;27.94;41.79;93720.97;5133869;27;20671;-76
2021/06/17 09:54:18;;;;;;;4.70;2.03;;;;;;;28.17;43.88;93718.19;5133973;27;20193;-76
2021/06/17 09:56:50;;;;;;;3.08;2.10;;;;;;;28.21;43.02;93713.75;5133519;27;20219;-76
2021/06/17 09:59:36;;;;;;;2.90;2.30;;;;;;;28.17;41.91;93710.13;5133822;27;20196;-77
2021/06/17 10:02:03;;;;;;;5.22;2.40;;;;;;;28.30;41.91;93711.13;5133429;27;20298;-77
2021/06/17 10:04:30;;;;;;;3.80;2.25;;;;;;;28.28;40.78;93716.00;5133563;27;20216;-76
2021/06/17 10:06:58;;;;;;;4.30;2.30;;;;;;;28.29;40.31;93722.94;5133738;28;20525;-77
2021/06/17 10:09:31;;;;;;;2.53;1.83;;;;;;;28.33;40.82;93721.22;5133840;28;20253;-77
2021/06/17 10:11:58;;;;;;;2.83;1.83;;;;;;;28.19;38.42;93724.81;5133939;28;20227;-76
2021/06/17 10:14:25;;;;;;;4.88;1.90;;;;;;;28.28;40.99;93719.47;5133583;28;20233;-76
2021/06/17 10:16:52;;;;;;;3.85;1.77;;;;;;;28.21;38.67;93719.13;5134010;28;20200;-76
2021/06/17 10:19:24;;;;;;;5.35;2.10;;;;;;;28.42;39.05;93712.06;5133846;28;20275;-76
2021/06/17 10:21:52;;;;;;;4.15;2.50;;;;;;;28.62;41.11;93727.94;5133819;28;20192;-76
2021/06/17 10:24:21;;;;;;;6.18;2.50;;;;;;;28.37;42.06;93725.66;5133329;28;20200;-76
2021/06/17 10:26:50;;;;;;;5.18;2.28;;;;;;;28.18;41.37;93725.94;5133810;28;20204;-76
2021/06/17 10:29:52;;;;;;;;;;;;;;;;;;;;;
2021/06/17 10:32:33;;;;;;;4.05;2.50;;;;;;;28.29;39.31;93729.09;5132860;27;20904;-76
2021/06/17 10:35:02;;;;;;;5.82;2.42;;;;;;;28.49;40.20;93719.66;5133570;28;20650;-76
2021/06/17 10:37:31;;;;;;;9.75;2.53;;;;;;;28.63;40.44;93713.38;5133400;28;20200;-75
2021/06/17 10:40:04;;;;;;;6.72;2.15;;;;;;;28.63;42.38;93714.19;5133660;28;20207;-76
2021/06/17 10:42:40;;;;;;;3.78;2.15;;;;;;;28.72;40.95;93712.28;5133785;28;20189;-76
2021/06/17 10:45:09;;;;;;;4.22;2.22;;;;;;;28.49;39.79;93713.50;5133490;28;20224;-78
2021/06/17 10:48:06;;;;;;;3.70;2.20;;;;;;;28.69;41.47;93702.16;5133346;28;20682;-76
2021/06/17 10:50:53;;;;;;;8.50;2.58;;;;;;;28.83;40.96;93702.00;5133626;28;20204;-77
2021/06/17 10:53:32;;;;;;;2.80;2.22;;;;;;;28.97;40.44;93707.22;5133649;28;20299;-76
2021/06/17 10:56:08;;;;;;;8.30;2.30;;;;;;;28.90;40.95;93713.06;5133486;27;20205;-77
2021/06/17 10:59:01;;;;;;;4.53;2.40;;;;;;;28.47;42.30;93704.97;5133545;28;20193;-77
2021/06/17 11:01:36;;;;;;;7.70;2.42;;;;;;;28.64;44.03;93701.53;5123022;28;20204;-76
2021/06/17 11:04:09;;;;;;;5.22;2.60;;;;;;;28.46;41.47;93714.13;5132266;28;20430;-76
2021/06/17 11:07:17;;;;;;;3.83;2.50;;;;;;;28.39;45.61;93703.84;5133002;28;20315;-77
2021/06/17 11:09:51;;;;;;;5.43;2.28;;;;;;;28.30;42.10;93716.50;5133341;28;20223;-76
2021/06/17 11:12:58;;;;;;;2.42;2.17;;;;;;;28.43;43.58;93710.19;5133335;28;20198;-77
2021/06/17 11:15:49;;;;;;;3.72;2.45;;;;;;;28.57;41.27;93715.44;5135486;27;20433;-76
2021/06/17 11:18:39;;;;;;;4.00;2.67;;;;;;;28.74;41.86;93704.69;5136831;27;20201;-76
2021/06/17 11:21:27;;;;;;;4.50;2.42;;;;;;;29.19;42.16;93700.09;5136797;27;20200;-76
2021/06/17 11:23:57;;;;;;;9.07;2.80;;;;;;;29.11;40.33;93707.03;5136638;27;20623;-76
2021/06/17 11:26:38;;;;;;;5.35;2.65;;;;;;;29.19;42.78;93702.78;5136533;27;20237;-76
2021/06/17 11:29:09;;;;;;;3.00;2.13;;;;;;;29.07;40.73;93698.81;5136577;27;20196;-77
2021/06/17 11:31:37;;;;;;;4.13;2.60;;;;;;;29.11;40.56;93701.63;5136454;27;20192;-75
2021/06/17 11:34:04;;;;;;;4.18;2.60;;;;;;;29.06;43.02;93699.13;5136732;27;20209;-77
2021/06/17 11:36:33;;;;;;;3.88;2.58;;;;;;;28.93;39.70;93704.38;5136679;27;20205;-76
2021/06/17 11:39:03;;;;;;;5.43;2.50;;;;;;;29.07;40.61;93693.44;5136465;27;20197;-76
2021/06/17 11:41:33;;;;;;;6.22;2.45;;;;;;;29.27;41.64;93697.38;5136656;27;20193;-76
2021/06/17 11:44:04;;;;;;;3.88;2.42;;;;;;;29.31;39.19;93698.31;5136328;27;20533;-76
2021/06/17 11:46:34;;;;;;;6.55;2.65;;;;;;;29.59;38.25;93694.44;5136499;27;20702;-76
2021/06/17 11:49:05;;;;;;;12.18;2.70;;;;;;;29.80;37.92;93684.56;5136410;27;20224;-76
2021/06/17 11:51:46;;;;;;;7.15;2.38;;;;;;;29.91;40.19;93684.19;5136663;27;20204;-76